Time;durP1;ratioP1;P1;durP2;ratioP2;P2;SDS_P1;SDS_P2;PMS_P1;PMS_P2;Temp;Humidity;BMP_temperature;BMP_pressure;BME280_temperature;BME280_humidity;BME280_pressure;Samples;Min_cycle;Max_cycle;Signal;HPM_P1;HPM_P2
2022/08/11 00:00:56;;;;;;;0.43;0.43;;;23.30;51.30;;;;;;6221341;28;20434;-67
2022/08/11 00:04:01;;;;;;;0.50;0.50;;;23.30;51.30;;;;;;6197842;28;20170;-67
2022/08/11 00:07:03;;;;;;;0.40;0.40;;;23.30;51.30;;;;;;6239896;28;20013;-68
2022/08/11 00:10:10;;;;;;;0.55;0.45;;;23.30;51.30;;;;;;6242545;28;20061;-67
2022/08/11 00:13:11;;;;;;;0.32;0.32;;;23.30;51.30;;;;;;6222812;28;20546;-67
2022/08/11 00:16:16;;;;;;;0.47;0.40;;;23.30;51.40;;;;;;6233471;28;20033;-68
2022/08/11 00:19:35;;;;;;;0.35;0.35;;;23.30;51.40;;;;;;6247311;28;20025;-66
2022/08/11 00:22:40;;;;;;;0.40;0.40;;;23.30;51.40;;;;;;6223282;28;20377;-67
2022/08/11 00:25:44;;;;;;;0.30;0.30;;;23.30;51.40;;;;;;6229691;28;20029;-67
2022/08/11 00:28:45;;;;;;;0.40;0.40;;;23.30;51.40;;;;;;6247010;28;20018;-67
2022/08/11 00:31:54;;;;;;;0.40;0.40;;;23.30;51.40;;;;;;6230238;28;20304;-68
2022/08/11 00:34:56;;;;;;;0.60;0.60;;;23.30;51.40;;;;;;6221907;28;20022;-68
2022/08/11 00:37:58;;;;;;;0.50;0.40;;;23.30;50.50;;;;;;6221989;28;20029;-67
2022/08/11 00:41:36;;;;;;;0.50;0.50;;;23.30;49.50;;;;;;6229454;28;20030;-67
2022/08/11 00:45:01;;;;;;;0.50;0.50;;;23.50;48.90;;;;;;6245184;28;20025;-67
2022/08/11 00:48:20;;;;;;;0.45;0.45;;;23.60;48.50;;;;;;6222447;28;20093;-67
2022/08/11 00:51:40;;;;;;;0.80;0.60;;;23.70;48.20;;;;;;6230790;28;20229;-67
2022/08/11 00:55:08;;;;;;;0.52;0.32;;;23.80;48.00;;;;;;6245526;28;20423;-67
2022/08/11 00:58:28;;;;;;;0.40;0.40;;;23.80;47.70;;;;;;6221229;28;20032;-67
2022/08/11 01:01:58;;;;;;;0.68;0.63;;;23.90;47.50;;;;;;6230322;28;20483;-67
2022/08/11 01:05:01;;;;;;;0.60;0.60;;;23.90;47.40;;;;;;6244166;28;20026;-67
2022/08/11 01:08:20;;;;;;;0.68;0.50;;;24.00;47.30;;;;;;6223847;28;20030;-67
2022/08/11 01:11:27;;;;;;;0.40;0.40;;;24.00;47.20;;;;;;6227395;28;20427;-67
2022/08/11 01:14:55;;;;;;;0.40;0.40;;;24.00;47.10;;;;;;6244338;28;20021;-66
2022/08/11 01:18:47;;;;;;;0.73;0.52;;;24.00;47.00;;;;;;6224194;28;20037;-67
2022/08/11 01:22:03;;;;;;;0.40;0.40;;;24.00;46.90;;;;;;6219397;28;20705;-67
2022/08/11 01:25:15;;;;;;;;;;;24.00;46.80;;;;;;6233811;28;20441;-67
2022/08/11 01:28:46;;;;;;;0.50;0.50;;;24.10;46.80;;;;;;6219648;28;19912;-67
2022/08/11 01:31:55;;;;;;;0.55;0.55;;;24.10;46.70;;;;;;6234695;28;20125;-67
2022/08/11 01:35:18;;;;;;;0.40;0.40;;;24.10;46.60;;;;;;6218541;28;20061;-67
2022/08/11 01:38:46;;;;;;;0.63;0.35;;;24.10;46.50;;;;;;6238441;28;20025;-67
2022/08/11 01:45:18;;;;;;;0.50;0.50;;;24.10;46.40;;;;;;6219072;28;20362;-67
2022/08/11 01:48:33;;;;;;;0.50;0.50;;;24.10;46.40;;;;;;6237133;28;20030;-67
2022/08/11 01:51:52;;;;;;;0.50;0.45;;;24.10;46.30;;;;;;6240589;28;20033;-67
2022/08/11 01:55:13;;;;;;;0.40;0.40;;;24.10;46.20;;;;;;6219445;28;20034;-67
2022/08/11 01:58:16;;;;;;;0.40;0.30;;;24.20;46.30;;;;;;6234542;28;20040;-67
2022/08/11 02:01:33;;;;;;;0.47;0.43;;;24.10;46.10;;;;;;6225124;28;20019;-67
2022/08/11 02:04:44;;;;;;;0.50;0.45;;;24.20;46.10;;;;;;6194774;28;20431;-67
2022/08/11 02:08:03;;;;;;;0.47;0.47;;;24.20;46.10;;;;;;6215284;28;20094;-66
2022/08/11 02:11:30;;;;;;;0.70;0.45;;;24.20;46.00;;;;;;6243406;28;20132;-67
2022/08/11 02:14:43;;;;;;;0.40;0.40;;;24.20;46.00;;;;;;6218953;28;20120;-70
2022/08/11 02:17:59;;;;;;;0.47;0.40;;;24.20;46.00;;;;;;6227921;28;20414;-70
2022/08/11 02:24:43;;;;;;;0.82;0.40;;;24.20;45.80;;;;;;6220152;28;20062;-67
2022/08/11 02:27:51;;;;;;;0.40;0.40;;;24.20;45.80;;;;;;6226025;28;20033;-67
2022/08/11 02:34:57;;;;;;;0.55;0.50;;;24.20;45.70;;;;;;6218205;28;20041;-67
2022/08/11 02:38:17;;;;;;;0.65;0.40;;;24.20;45.70;;;;;;6226261;28;20097;-67
2022/08/11 02:45:10;;;;;;;0.40;0.40;;;24.20;45.60;;;;;;6219814;28;20497;-68
2022/08/11 02:52:08;;;;;;;0.52;0.52;;;24.20;45.40;;;;;;6243458;28;20468;-67
2022/08/11 02:55:31;;;;;;;0.40;0.40;;;24.20;45.50;;;;;;6219807;28;20022;-67
2022/08/11 03:02:37;;;;;;;0.63;0.57;;;24.00;46.70;;;;;;6208608;28;20035;-67
2022/08/11 03:06:03;;;;;;;0.50;0.50;;;23.80;47.40;;;;;;6193415;28;20026;-67
2022/08/11 03:09:23;;;;;;;0.60;0.60;;;23.80;47.80;;;;;;6219252;28;20303;-67
2022/08/11 03:16:51;;;;;;;0.80;0.70;;;23.70;48.50;;;;;;6194653;28;20477;-67
2022/08/11 03:20:28;;;;;;;0.85;0.60;;;23.70;48.70;;;;;;6230368;28;20034;-67
2022/08/11 03:23:36;;;;;;;0.50;0.50;;;23.60;48.90;;;;;;6235935;28;20493;-67
2022/08/11 03:26:58;;;;;;;0.70;0.50;;;23.60;49.10;;;;;;6217390;28;20110;-67
2022/08/11 03:30:22;;;;;;;0.35;0.35;;;23.60;49.20;;;;;;6217391;28;20420;-67
2022/08/11 03:37:47;;;;;;;0.47;0.47;;;23.60;49.40;;;;;;6223672;28;20385;-67
2022/08/11 03:44:59;;;;;;;0.40;0.40;;;23.60;49.40;;;;;;6237102;28;20034;-66
2022/08/11 03:48:31;;;;;;;0.65;0.52;;;23.60;49.50;;;;;;6223481;28;20017;-67
2022/08/11 03:51:46;;;;;;;0.82;0.57;;;23.60;49.50;;;;;;6188844;28;20169;-67
2022/08/11 03:54:53;;;;;;;0.43;0.43;;;23.60;49.50;;;;;;6223779;28;20092;-68
2022/08/11 03:58:34;;;;;;;0.68;0.50;;;23.60;49.60;;;;;;6247697;28;20033;-67
2022/08/11 04:01:37;;;;;;;0.95;0.60;;;23.60;49.70;;;;;;6178878;28;20045;-67
2022/08/11 04:04:50;;;;;;;0.80;0.60;;;23.50;49.70;;;;;;6217571;28;20033;-67
2022/08/11 04:08:21;;;;;;;0.40;0.40;;;23.50;49.70;;;;;;6245865;28;20508;-67
2022/08/11 04:11:52;;;;;;;0.60;0.55;;;23.50;49.70;;;;;;6221614;28;20366;-66
2022/08/11 04:18:41;;;;;;;0.60;0.60;;;23.50;49.60;;;;;;6245792;28;20026;-68
2022/08/11 04:22:07;;;;;;;0.52;0.50;;;23.50;49.70;;;;;;6195647;28;20057;-68
2022/08/11 04:25:16;;;;;;;0.52;0.40;;;23.50;49.80;;;;;;6219325;28;20057;-67
2022/08/11 04:28:41;;;;;;;0.50;0.50;;;23.50;49.80;;;;;;6245613;28;20049;-67
2022/08/11 04:31:59;;;;;;;0.60;0.50;;;23.50;49.90;;;;;;6224325;28;20099;-67
2022/08/11 04:35:25;;;;;;;0.50;0.50;;;23.50;49.90;;;;;;6236833;28;20126;-67
2022/08/11 04:38:47;;;;;;;0.60;0.60;;;23.50;50.00;;;;;;6220786;28;20526;-67
2022/08/11 04:45:53;;;;;;;0.43;0.43;;;23.50;49.90;;;;;;6232610;28;20038;-67
2022/08/11 05:03:45;;;;;;;0.55;0.43;;;23.50;50.20;;;;;;6196576;28;20034;-70
2022/08/11 05:07:24;;;;;;;0.47;0.47;;;23.50;50.20;;;;;;6233918;28;20040;-70
2022/08/11 05:10:40;;;;;;;0.60;0.40;;;23.50;50.30;;;;;;6236811;28;20116;-67
2022/08/11 05:58:06;;;;;;;0.40;0.40;;;23.50;50.50;;;;;;6210226;28;20779;-67
2022/08/11 06:01:09;;;;;;;0.80;0.55;;;23.50;50.50;;;;;;6221481;28;20033;-67
2022/08/11 06:04:19;;;;;;;0.68;0.50;;;23.40;50.40;;;;;;6221180;28;20026;-67
2022/08/11 06:07:29;;;;;;;0.63;0.60;;;23.50;50.50;;;;;;6237278;28;20427;-67
2022/08/11 06:10:39;;;;;;;0.45;0.45;;;23.40;50.40;;;;;;6210530;28;20215;-67
2022/08/11 06:13:44;;;;;;;0.80;0.60;;;23.40;50.40;;;;;;6197293;28;20054;-67
2022/08/11 06:16:48;;;;;;;0.60;0.60;;;23.40;50.40;;;;;;6210035;28;20125;-67
2022/08/11 06:19:51;;;;;;;0.60;0.50;;;23.40;50.50;;;;;;6229673;28;20034;-67
2022/08/11 06:23:00;;;;;;;0.73;0.70;;;23.40;50.50;;;;;;6227947;28;20100;-68
2022/08/11 06:26:06;;;;;;;0.60;0.60;;;23.40;50.50;;;;;;6222823;28;20384;-68
2022/08/11 06:29:10;;;;;;;0.70;0.60;;;23.40;50.50;;;;;;6245227;28;20029;-68
2022/08/11 06:32:12;;;;;;;0.93;0.75;;;23.40;50.50;;;;;;6233778;28;20032;-67
2022/08/11 06:35:38;;;;;;;0.50;0.50;;;23.40;50.60;;;;;;6219927;28;20053;-68
2022/08/11 06:38:57;;;;;;;0.50;0.50;;;23.40;50.60;;;;;;6243625;28;20029;-70
2022/08/11 06:42:07;;;;;;;1.92;0.70;;;23.40;50.60;;;;;;6237679;28;20481;-69
2022/08/11 06:45:26;;;;;;;0.60;0.50;;;23.40;50.60;;;;;;6220936;28;20164;-67
2022/08/11 06:48:31;;;;;;;1.08;0.70;;;23.40;50.60;;;;;;6240372;28;20096;-67
2022/08/11 06:51:37;;;;;;;0.60;0.60;;;23.40;50.70;;;;;;6242680;28;20025;-67
2022/08/11 06:54:48;;;;;;;0.68;0.68;;;23.40;50.70;;;;;;6220183;28;20099;-67
2022/08/11 07:01:11;;;;;;;0.88;0.60;;;23.40;50.70;;;;;;6215287;28;20042;-67
2022/08/11 07:04:23;;;;;;;0.50;0.50;;;23.40;50.60;;;;;;6228416;28;20447;-68
2022/08/11 07:31:49;;;;;;;1.55;0.75;;;23.50;50.80;;;;;;6217888;28;20500;-67
2022/08/11 07:35:03;;;;;;;1.40;0.63;;;23.60;50.80;;;;;;6243312;28;20091;-67
2022/08/11 07:38:08;;;;;;;2.73;0.90;;;23.60;50.80;;;;;;6235059;28;20025;-68
2022/08/11 07:41:14;;;;;;;0.98;0.73;;;23.60;50.90;;;;;;6217466;28;20044;-67
2022/08/11 07:44:16;;;;;;;1.00;0.70;;;23.50;50.80;;;;;;6227260;28;20038;-67
2022/08/11 07:54:00;;;;;;;0.95;0.80;;;23.50;50.90;;;;;;6240662;28;20041;-69
2022/08/11 08:20:26;;;;;;;0.85;0.65;;;23.50;51.00;;;;;;6226191;28;20034;-68
2022/08/11 08:23:33;;;;;;;0.85;0.63;;;23.50;51.00;;;;;;6230248;28;20073;-68
2022/08/11 08:33:18;;;;;;;0.70;0.50;;;23.40;50.90;;;;;;6223488;28;20030;-68
2022/08/11 08:36:21;;;;;;;0.55;0.50;;;23.40;50.90;;;;;;6221050;28;20034;-68
2022/08/11 08:39:23;;;;;;;1.38;0.80;;;23.40;50.90;;;;;;6235672;28;20021;-68
2022/08/11 08:42:27;;;;;;;0.75;0.60;;;23.40;51.00;;;;;;6248181;28;20432;-68
2022/08/11 08:45:28;;;;;;;0.60;0.60;;;23.40;51.00;;;;;;6228305;28;20580;-68
2022/08/11 08:48:31;;;;;;;0.77;0.77;;;23.40;51.00;;;;;;6226555;28;20439;-67
2022/08/11 08:51:38;;;;;;;0.60;0.50;;;23.40;51.00;;;;;;6247777;28;20030;-68
2022/08/11 08:54:43;;;;;;;0.60;0.60;;;23.40;51.00;;;;;;6235578;28;20052;-67
2022/08/11 08:57:47;;;;;;;1.27;0.65;;;23.40;51.00;;;;;;6247940;28;20083;-68
2022/08/11 09:00:50;;;;;;;0.47;0.47;;;23.40;51.00;;;;;;6227171;28;20530;-68
2022/08/11 09:03:51;;;;;;;0.88;0.63;;;23.40;51.00;;;;;;6226885;28;20431;-68
2022/08/11 09:06:54;;;;;;;0.70;0.70;;;23.40;51.00;;;;;;6247306;28;20076;-68
2022/08/11 09:09:57;;;;;;;0.70;0.60;;;23.40;51.00;;;;;;6235688;28;20037;-68
2022/08/11 09:12:59;;;;;;;0.73;0.52;;;23.40;51.00;;;;;;6222992;28;20133;-68
2022/08/11 09:16:03;;;;;;;1.40;0.60;;;23.40;51.10;;;;;;6243165;28;20017;-68
2022/08/11 09:19:06;;;;;;;1.33;0.60;;;23.40;51.10;;;;;;6243871;28;20014;-68
2022/08/11 09:28:49;;;;;;;1.00;0.80;;;23.40;51.10;;;;;;6222767;28;20045;-68
2022/08/11 09:31:52;;;;;;;0.60;0.60;;;23.40;51.10;;;;;;6221757;28;20484;-68
2022/08/11 09:34:53;;;;;;;0.50;0.50;;;23.40;51.20;;;;;;6222695;28;20022;-68
2022/08/11 09:41:15;;;;;;;0.70;0.60;;;23.40;51.10;;;;;;6241085;28;20487;-68
2022/08/11 09:47:37;;;;;;;0.60;0.60;;;23.40;51.10;;;;;;6222119;28;20469;-68
2022/08/11 09:50:39;;;;;;;1.33;0.85;;;23.40;51.10;;;;;;6234381;28;20040;-67
2022/08/11 09:53:41;;;;;;;1.10;0.80;;;23.40;51.20;;;;;;6230551;28;20034;-68
2022/08/11 10:00:02;;;;;;;0.43;0.43;;;23.40;51.20;;;;;;6240704;28;20026;-68
2022/08/11 10:03:16;;;;;;;0.73;0.65;;;23.40;51.20;;;;;;6221738;28;20025;-68
2022/08/11 10:09:55;;;;;;;0.93;0.60;;;23.40;51.20;;;;;;6244591;28;20112;-68
2022/08/11 10:13:03;;;;;;;0.50;0.50;;;23.40;51.20;;;;;;6221679;28;20034;-68
2022/08/11 10:16:08;;;;;;;0.55;0.52;;;23.40;51.20;;;;;;6233982;28;20029;-68
2022/08/11 10:19:09;;;;;;;;;;;23.40;51.20;;;;;;6246479;28;20052;-68
2022/08/11 10:28:49;;;;;;;0.60;0.60;;;23.40;51.30;;;;;;6246111;28;20029;-68
2022/08/11 10:35:12;;;;;;;1.13;0.70;;;23.30;51.20;;;;;;6221263;28;20061;-68
2022/08/11 10:38:14;;;;;;;0.68;0.57;;;23.40;51.30;;;;;;6220847;28;20029;-68
2022/08/11 10:44:44;;;;;;;0.50;0.50;;;23.40;51.30;;;;;;6245783;28;20113;-68
2022/08/11 10:47:45;;;;;;;1.05;0.60;;;23.30;51.20;;;;;;6223575;28;20026;-67
2022/08/11 11:00:51;;;;;;;0.88;0.57;;;23.40;51.40;;;;;;6242393;28;20053;-67
2022/08/11 11:04:00;;;;;;;0.73;0.57;;;23.40;51.40;;;;;;6244535;28;20022;-68
2022/08/11 11:07:15;;;;;;;0.68;0.60;;;23.40;51.40;;;;;;6231723;28;20024;-68
2022/08/11 11:10:15;;;;;;;0.60;0.60;;;23.30;51.30;;;;;;6220747;28;20073;-68
2022/08/11 11:20:02;;;;;;;0.55;0.55;;;23.30;51.30;;;;;;6244311;28;20033;-68
2022/08/11 11:23:06;;;;;;;0.47;0.47;;;23.30;51.30;;;;;;6213788;28;20460;-68
2022/08/11 11:26:19;;;;;;;0.82;0.60;;;23.30;51.30;;;;;;6219530;28;20065;-68
2022/08/11 11:29:30;;;;;;;0.60;0.60;;;23.30;51.40;;;;;;6219656;28;20469;-68
2022/08/11 11:32:34;;;;;;;0.75;0.57;;;23.30;51.30;;;;;;6210047;28;20042;-67
2022/08/11 11:35:56;;;;;;;1.48;0.68;;;23.30;51.30;;;;;;6239329;28;20021;-67
2022/08/11 11:38:58;;;;;;;0.57;0.55;;;23.30;51.40;;;;;;6228010;28;20460;-68
2022/08/11 11:42:03;;;;;;;0.60;0.60;;;23.30;51.40;;;;;;6237421;28;20021;-68
2022/08/11 11:45:04;;;;;;;0.50;0.50;;;23.30;51.40;;;;;;6209184;28;20381;-67
2022/08/11 11:48:05;;;;;;;0.60;0.60;;;23.30;51.40;;;;;;6235463;28;20492;-67
2022/08/11 11:51:07;;;;;;;1.02;0.60;;;23.30;51.40;;;;;;6228782;28;20030;-67
2022/08/11 11:54:09;;;;;;;0.40;0.40;;;23.30;51.40;;;;;;6228498;28;20049;-68
2022/08/11 12:03:54;;;;;;;0.70;0.60;;;23.30;51.50;;;;;;6210867;28;20412;-68
2022/08/11 12:08:08;;;;;;;0.70;0.52;;;23.30;51.40;;;;;;6228923;28;20361;-67
2022/08/11 12:10:19;;;;;;;0.77;0.57;;;23.30;51.50;;;;;;6236988;28;20041;-67
2022/08/11 12:16:42;;;;;;;0.70;0.50;;;23.30;51.50;;;;;;6248558;28;20029;-68
2022/08/11 12:19:42;;;;;;;0.77;0.55;;;23.30;51.50;;;;;;6246182;28;20652;-68
2022/08/11 12:29:31;;;;;;;0.50;0.50;;;23.30;51.50;;;;;;6245668;28;20544;-68
2022/08/11 12:32:35;;;;;;;0.80;0.40;;;23.30;51.60;;;;;;6219447;28;20129;-67
2022/08/11 12:35:36;;;;;;;0.30;0.30;;;23.30;51.50;;;;;;6202407;28;20026;-68
2022/08/11 12:38:37;;;;;;;0.90;0.50;;;23.30;51.50;;;;;;6227998;28;20035;-68
2022/08/11 12:51:57;;;;;;;0.55;0.50;;;23.30;51.60;;;;;;6221877;28;20037;-68
2022/08/11 12:55:10;;;;;;;0.50;0.50;;;23.30;51.60;;;;;;6205662;28;20055;-68
2022/08/11 12:58:17;;;;;;;0.50;0.50;;;23.30;51.60;;;;;;6213151;28;20025;-68
2022/08/11 13:04:55;;;;;;;0.50;0.50;;;23.30;51.60;;;;;;6235845;28;20439;-68
2022/08/11 13:07:55;;;;;;;0.50;0.50;;;23.30;51.60;;;;;;6243999;28;20033;-68
2022/08/11 13:14:19;;;;;;;0.70;0.50;;;23.30;51.70;;;;;;6238656;28;20033;-68
2022/08/11 13:17:20;;;;;;;0.52;0.47;;;23.30;51.60;;;;;;6248481;28;20049;-68
2022/08/11 13:20:23;;;;;;;0.50;0.50;;;23.30;51.60;;;;;;6225099;28;20093;-68
2022/08/11 13:23:25;;;;;;;0.50;0.50;;;23.30;51.70;;;;;;6228731;28;20513;-68
2022/08/11 13:26:26;;;;;;;0.70;0.60;;;23.30;51.70;;;;;;6248111;28;20024;-68
2022/08/11 13:29:28;;;;;;;0.47;0.45;;;23.30;51.60;;;;;;6232607;28;20053;-68
2022/08/11 13:32:28;;;;;;;0.40;0.40;;;23.30;51.70;;;;;;6223020;28;20045;-68
2022/08/11 13:35:33;;;;;;;0.50;0.50;;;23.30;51.70;;;;;;6222778;28;20052;-68
2022/08/11 13:38:35;;;;;;;0.52;0.50;;;23.30;51.70;;;;;;6228362;28;20392;-68
2022/08/11 13:41:38;;;;;;;0.40;0.40;;;23.30;51.70;;;;;;6247499;28;20822;-68
2022/08/11 13:44:39;;;;;;;0.80;0.60;;;23.30;51.70;;;;;;6233938;28;20583;-67
2022/08/11 13:47:41;;;;;;;0.63;0.50;;;23.30;51.70;;;;;;6219446;28;20033;-67
2022/08/11 13:54:16;;;;;;;0.40;0.40;;;23.30;51.70;;;;;;6239796;28;20637;-67
2022/08/11 13:57:18;;;;;;;0.60;0.60;;;23.30;51.70;;;;;;6222727;28;20021;-68
2022/08/11 14:00:19;;;;;;;0.50;0.50;;;23.30;51.70;;;;;;6236047;28;20467;-68
2022/08/11 14:03:25;;;;;;;0.57;0.52;;;23.30;51.70;;;;;;6198367;28;20211;-68
2022/08/11 14:06:26;;;;;;;0.40;0.40;;;23.30;51.70;;;;;;6213216;28;20037;-68
2022/08/11 14:09:38;;;;;;;0.60;0.60;;;23.30;51.70;;;;;;6214185;28;20123;-68
2022/08/11 14:16:07;;;;;;;0.60;0.50;;;23.30;51.70;;;;;;6221124;28;20026;-67
2022/08/11 14:19:12;;;;;;;0.75;0.45;;;23.30;51.80;;;;;;6210640;28;20006;-67
2022/08/11 14:22:15;;;;;;;0.60;0.55;;;23.30;51.70;;;;;;6218626;28;20108;-69
2022/08/11 14:25:16;;;;;;;3.70;0.60;;;23.30;50.10;;;;;;6232141;28;20041;-68
2022/08/11 14:28:17;;;;;;;0.45;0.40;;;23.40;49.50;;;;;;6241924;28;20384;-68
2022/08/11 14:31:18;;;;;;;0.60;0.60;;;23.50;49.00;;;;;;6235644;28;20037;-68
2022/08/11 14:34:22;;;;;;;0.90;0.60;;;23.60;48.70;;;;;;6219760;28;20018;-67
2022/08/11 14:37:26;;;;;;;1.02;0.50;;;23.70;48.30;;;;;;6237244;28;20029;-67
2022/08/11 14:47:06;;;;;;;0.50;0.50;;;23.90;47.90;;;;;;6196141;28;20109;-68
2022/08/11 14:50:12;;;;;;;1.27;0.30;;;23.90;47.70;;;;;;6211795;28;20438;-68
2022/08/11 14:53:14;;;;;;;1.25;0.50;;;23.90;47.50;;;;;;6244374;28;20444;-68
2022/08/11 14:59:35;;;;;;;1.80;0.45;;;24.00;47.40;;;;;;6200277;28;20038;-68
2022/08/11 15:06:03;;;;;;;0.40;0.40;;;24.00;47.10;;;;;;6221432;28;20021;-68
2022/08/11 15:09:05;;;;;;;0.40;0.40;;;24.00;47.00;;;;;;6244473;28;20057;-67
2022/08/11 15:12:15;;;;;;;0.50;0.50;;;24.00;46.90;;;;;;6221932;28;20061;-68
2022/08/11 15:18:36;;;;;;;0.45;0.45;;;24.00;46.70;;;;;;6244597;28;20472;-67
2022/08/11 15:24:58;;;;;;;0.73;0.50;;;24.00;46.50;;;;;;6218899;28;20097;-68
2022/08/11 15:37:54;;;;;;;0.65;0.45;;;24.10;46.50;;;;;;6233285;28;20030;-68
2022/08/11 15:47:44;;;;;;;0.70;0.40;;;24.10;46.20;;;;;;6228363;28;20385;-68
2022/08/11 15:50:54;;;;;;;0.52;0.40;;;24.10;46.10;;;;;;6227665;28;20721;-68
2022/08/11 15:53:58;;;;;;;0.50;0.50;;;24.10;46.10;;;;;;6249452;28;20391;-68
2022/08/11 15:57:01;;;;;;;0.50;0.50;;;24.10;46.10;;;;;;6241507;28;20064;-68
2022/08/11 16:06:56;;;;;;;0.77;0.50;;;24.10;45.90;;;;;;6237654;28;20034;-68
2022/08/11 16:10:08;;;;;;;0.45;0.43;;;24.10;45.90;;;;;;6223770;28;20477;-68
2022/08/11 16:16:16;;;;;;;0.40;0.40;;;24.10;45.80;;;;;;6228585;28;20404;-68
2022/08/11 16:19:18;;;;;;;0.30;0.30;;;24.10;45.90;;;;;;6246457;28;20047;-68
2022/08/11 16:22:33;;;;;;;0.50;0.50;;;24.10;45.70;;;;;;6228114;28;20040;-68
2022/08/11 16:25:35;;;;;;;0.30;0.30;;;24.10;45.80;;;;;;6220827;28;20126;-68
2022/08/11 16:28:37;;;;;;;0.40;0.40;;;24.20;45.70;;;;;;6221113;28;20026;-67
2022/08/11 16:31:40;;;;;;;0.50;0.50;;;24.20;45.70;;;;;;6220208;28;20038;-67
2022/08/11 16:48:07;;;;;;;0.40;0.40;;;24.20;45.50;;;;;;6236593;28;20037;-68
2022/08/11 16:51:11;;;;;;;0.60;0.50;;;24.20;45.40;;;;;;6243455;28;20031;-68
2022/08/11 16:54:12;;;;;;;0.45;0.40;;;24.20;45.40;;;;;;6219337;28;20025;-67
2022/08/11 17:00:44;;;;;;;0.40;0.40;;;24.20;45.30;;;;;;6223696;28;20112;-67
2022/08/11 17:13:07;;;;;;;0.68;0.50;;;24.20;45.20;;;;;;6208772;28;20037;-68
2022/08/11 17:14:05;;;;;;;1.33;0.38;;;24.30;45.20;;;;;;6221027;28;20124;-68
2022/08/11 17:17:12;;;;;;;0.60;0.60;;;24.30;45.20;;;;;;6220068;28;20469;-67
2022/08/11 17:20:14;;;;;;;0.80;0.40;;;24.30;46.00;;;;;;6218886;28;20022;-68
2022/08/11 17:23:57;;;;;;;1.02;0.43;;;24.30;45.20;;;;;;6224142;28;20538;-68
2022/08/11 17:26:57;;;;;;;1.00;0.52;;;24.30;45.20;;;;;;6207644;28;20084;-68
2022/08/11 17:30:08;;;;;;;0.52;0.40;;;24.30;45.20;;;;;;6193629;28;20030;-68
2022/08/11 17:36:39;;;;;;;0.40;0.40;;;24.30;45.10;;;;;;6210172;28;20400;-68
2022/08/11 17:39:41;;;;;;;0.50;0.50;;;24.30;45.10;;;;;;6241300;28;20443;-67
2022/08/11 17:49:23;;;;;;;0.68;0.38;;;24.30;44.90;;;;;;6237226;28;20026;-68
2022/08/11 18:06:03;;;;;;;0.77;0.30;;;24.00;46.60;;;;;;6235381;28;20038;-68
